Aeroporto :
LOGIN :

Iscrizione | Disclaimer

   EN    FR    IT 

 










Sommario :    VFR   VFR Marginale   IFR   IFR Intensivo   IFR Molto Intensivo
Visibilità : 
Base nubi : 
>= 8 km
>= 3000ft
5 / 8 km
1000 / 3000 ft
1500m / 5 km
500 / 1000 ft
800 / 1500m
200 / 500 ft
< 800m
< 200 ft
Simboli :   Temporali  Nebbia  Neve Forte  Precipitazioni Forti  Vento > 20 kt
SIGMETs :   Varie  Temporali  Ghiacco  Turbolenza  Onda orograficha  Ceneri Vulcaniche







- Altitudine del aeroporto : 179 ft


LIPI - Rivolto AFB Udine

ULTIMO METAR :
  • 240955Z /////KT CAVOK 23/12 Q1013 RMK FEW FEW200 VIS MIN 9999 WIND THR06 VRB02KT WIND THR24 16002KT BLU

METARs OBSOLETI :
  • 240855Z /////KT CAVOK 22/14 Q1013 RMK FEW FEW200 VIS MIN 9999 WIND THR06 19002KT WIND THR24 08002KT BLU
  • 240755Z /////KT CAVOK 21/14 Q1014 RMK FEW FEW200 VIS MIN 9999 WIND THR06 05004KT WIND THR24 05004KT BLU

TAF TAF LIPI
Valido dal 24 a 09 ore il 24 a 18 ore UTC


240800Z 2409/2418 VRB03KT 9999 FEW030 SCT080
PROB40
TEMPO 2414/2418 7000 TSRA FEW020CB BKN030
Nessun NOTAM noto per questo aeroporto.



MetMap, La meteo Aeronautica in un colpo d'occhio ! - Copyright ORBIFLY Dicembre 2007 - Disclaimer

ORBIFLY MET'MAP TEAM :

Programmazione e sviluppo : Alexandra Zaïnal
Concezione e sviluppo : Baudouin d'Aumeries
Co-Programmazione e sviluppo : Marc-Olivier Méhu
Supporto tecnico e logistico : Manuel Goepfert
Aiuto per la traduzione : Arnaldo La Scala

Contatto : metmap@orbifly.com




FONTI E CREDITI :

   NOAA